Forside
METAR-TAF:

METAR-TAF

Lufthavne :

Antananarivo, Madagaskar

Breddekreds: 18-48S, længdekreds: 047-29E, højde: 1279 m

Aktuelle vejr

Denne rapport blev lavet for 10 minutter siden, kl. 19:00 UTC
Vind 6 kt fra østsydøst
Temperatur 11°C
Fugtighed 82%
Tryk 1025 hPa
Sigt 10 km eller mere
Nogle få skyer i en højde af 2000 ft

METAR: FMMI 221900Z 11006KT 9999 FEW020 11/08 Q1025 NOSIG

Tid: 22:10 (19:10 UTC)

Vejrudsigter

Denne rapport blev lavet for 2 timer og 10 minutter siden, kl. 17:00 UTC
Foreløbig gælder fra 22 på 18 UTC til 23 på 24 UTC
Vind 7 kt fra østsydøst
Sigt 10 km eller mere
Nogle få skyer i en højde af 1700 ft
Spredte skyer i en højde af 2000 ft
Sandsynlighed 30%
fra 23 på 02 UTC til 23 på 05 UTC
Sigt: 4000 m
dis

TAF: FMMI 221700Z 2218/2324 12007KT 9999 FEW017 SCT020 PROB30 2302/2305 4000 BR

Vejrobservationer og prognoser fra mere end 4000 lufthavne (METAR og TAF).

De gule og røde prikker repræsenterer de meteorologiske stationer.

Flyt musen over at se navnet på stationen.

Så klik over at se vejr observationer og prognoser.

At skifte det kort: Klik på de grønne knapper med et sort kors for at zoome ind; på den grønne knap med en bindestreg for at zoome ud; eller på de grønne pile for tilstødende kort.


METAR-TAF: